Fairholm, Washington
Current Conditions -  °F | °C
As of 8:53 PM on Monday 20 Oct 2014 (Local Time) from KCLM Reporting Station
Broken Clouds Broken Clouds  
Wind Chill: 54°   Ceiling: 6500
Heat Index: 54°   Visibility: 10mi
Dew Point: 49°   Wind: 8mph
Humidity: 83%   Direction: 250°WSW
Pressure: 29.73"   Gusts: NA
Location:  48.0203°N, 123.478°W
Report Text: KCLM 210353Z AUTO 25007KT 10SM BKN065 12/09 A2973 RMK AO2 SLP068 T01220094 TSNO $
Loading
Personal Weather Stations






























Interactive Weather Map
Tropical Storm Tracking
New forecast layout! Learn more

10-Day Weather Forecast

Advertisements
Track Severe Weather on mobile